createdAt,value
2018-04-16T00:00:32.633Z,156.48
2018-04-16T00:03:02.692Z,148.35
2018-04-16T00:05:32.060Z,150.12
2018-04-16T00:08:01.477Z,144.10
2018-04-16T00:10:31.480Z,149.32
2018-04-16T00:13:00.839Z,143.65
2018-04-16T00:15:30.094Z,156.77
2018-04-16T00:17:59.568Z,145.75
2018-04-16T00:20:28.936Z,140.93
2018-04-16T00:22:59.103Z,154.80
2018-04-16T00:25:28.611Z,145.10
2018-04-16T00:27:58.115Z,136.88
2018-04-16T00:30:27.779Z,136.20
2018-04-16T00:33:02.865Z,139.73
2018-04-16T00:35:37.563Z,142.80
2018-04-16T00:38:13.196Z,133.98
2018-04-16T00:40:47.891Z,126.28
2018-04-16T00:43:22.800Z,134.37
2018-04-16T00:45:57.512Z,140.48
2018-04-16T00:48:33.072Z,139.43
2018-04-16T00:51:09.200Z,131.48
2018-04-16T00:54:01.792Z,126.78
2018-04-16T00:59:42.985Z,131.05
2018-04-16T01:02:17.655Z,146.13
2018-04-16T01:04:52.443Z,148.57
2018-04-16T01:07:28.166Z,127.38
2018-04-16T01:10:03.135Z,125.80
2018-04-16T01:12:39.443Z,130.90
2018-04-16T01:15:14.419Z,129.93
2018-04-16T01:17:49.618Z,130.87
2018-04-16T01:23:30.160Z,130.57
2018-04-16T01:26:05.089Z,125.85
2018-04-16T01:28:40.868Z,122.18
2018-04-16T01:31:17.408Z,122.43
2018-04-16T01:33:52.635Z,140.57
2018-04-16T01:36:27.693Z,137.45
2018-04-16T01:39:03.235Z,125.65
2018-04-16T01:41:38.120Z,135.88
2018-04-16T01:44:12.993Z,128.85
2018-04-16T01:46:47.828Z,121.55
2018-04-16T01:49:22.648Z,133.50
2018-04-16T01:51:59.163Z,109.37
2018-04-16T01:54:35.017Z,120.35
2018-04-16T01:57:09.990Z,124.95
2018-04-16T01:59:44.787Z,130.65
2018-04-16T02:02:20.091Z,128.43
2018-04-16T02:04:55.665Z,121.28
2018-04-16T02:07:30.567Z,123.38
2018-04-16T02:10:05.799Z,117.82
2018-04-16T02:12:41.656Z,110.47
2018-04-16T02:15:16.442Z,121.22
2018-04-16T02:17:51.314Z,122.55
2018-04-16T02:20:26.108Z,115.75
2018-04-16T02:23:00.979Z,116.85
2018-04-16T02:25:35.910Z,105.78
2018-04-16T02:28:10.808Z,107.35
2018-04-16T02:30:45.671Z,121.82
2018-04-16T02:33:20.316Z,102.60
2018-04-16T02:35:55.950Z,99.95
2018-04-16T02:38:30.696Z,100.90
2018-04-16T02:41:05.622Z,101.65
2018-04-16T02:43:42.165Z,103.68
2018-04-16T02:49:19.139Z,99.22
2018-04-16T02:51:55.450Z,115.18
2018-04-16T02:54:30.247Z,121.20
2018-04-16T02:57:05.037Z,114.20
2018-04-16T02:59:40.107Z,109.37
2018-04-16T03:02:15.383Z,104.68
2018-04-16T03:04:50.031Z,112.37
2018-04-16T03:07:26.076Z,99.62
2018-04-16T03:10:00.948Z,102.03
2018-04-16T03:12:35.736Z,97.47
2018-04-16T03:15:10.371Z,108.43
2018-04-16T03:17:46.224Z,95.38
2018-04-16T03:20:20.903Z,97.05
2018-04-16T03:22:56.492Z,89.75
2018-04-16T03:25:31.119Z,96.95
2018-04-16T03:28:06.762Z,96.45
2018-04-16T03:30:42.776Z,99.50
2018-04-16T03:36:19.963Z,97.40
2018-04-16T03:38:54.758Z,95.22
2018-04-16T03:41:29.581Z,96.65
2018-04-16T03:44:06.088Z,90.22
2018-04-16T03:46:43.633Z,97.60
2018-04-16T03:49:18.585Z,84.75
2018-04-16T03:51:49.375Z,94.00
2018-04-16T03:54:19.652Z,92.37
2018-04-16T03:56:49.026Z,89.57
2018-04-16T03:59:18.459Z,98.70
2018-04-16T04:01:47.687Z,83.68
2018-04-16T04:04:17.058Z,83.80
2018-04-16T04:06:47.620Z,92.25
2018-04-16T04:09:17.507Z,90.00
2018-04-16T04:11:47.834Z,84.15
2018-04-16T04:14:17.782Z,83.45
2018-04-16T04:16:47.534Z,87.20
2018-04-16T04:19:16.963Z,82.55
2018-04-16T04:21:47.052Z,87.00
2018-04-16T04:24:34.202Z,87.55
2018-04-16T04:27:21.134Z,95.22
2018-04-16T04:32:57.072Z,86.80
2018-04-16T04:35:26.605Z,98.47
2018-04-16T04:37:55.851Z,106.82
2018-04-16T04:40:25.522Z,85.45
2018-04-16T04:42:54.755Z,79.18
2018-04-16T04:45:24.090Z,88.87
2018-04-16T04:47:54.104Z,78.85
2018-04-16T04:50:24.613Z,87.68
2018-04-16T04:52:53.827Z,78.30
2018-04-16T04:55:23.053Z,91.95
2018-04-16T04:57:52.562Z,91.15
2018-04-16T05:00:22.528Z,108.82
2018-04-16T05:02:51.989Z,86.68
2018-04-16T05:05:21.238Z,81.20
2018-04-16T05:07:50.589Z,92.50
2018-04-16T05:10:20.139Z,81.85
2018-04-16T05:12:49.806Z,67.75
2018-04-16T05:15:19.819Z,69.87
2018-04-16T05:17:49.185Z,79.12
2018-04-16T05:20:18.415Z,75.15
2018-04-16T05:22:48.954Z,74.78
2018-04-16T05:25:19.035Z,68.93
2018-04-16T05:27:48.387Z,69.28
2018-04-16T05:30:17.886Z,83.30
2018-04-16T05:32:48.042Z,71.40
2018-04-16T05:35:17.530Z,67.65
2018-04-16T05:37:47.830Z,69.43
2018-04-16T05:40:17.461Z,60.05
2018-04-16T05:42:46.842Z,70.90
2018-04-16T05:45:17.015Z,58.83
2018-04-16T05:47:46.472Z,65.62
2018-04-16T05:50:15.872Z,63.80
2018-04-16T05:52:45.739Z,72.32
2018-04-16T05:55:14.980Z,55.03
2018-04-16T05:57:44.491Z,64.65
2018-04-16T06:00:14.838Z,68.40
2018-04-16T06:02:45.064Z,67.55
2018-04-16T06:05:14.942Z,68.05
2018-04-16T06:07:44.171Z,64.75
2018-04-16T06:10:14.479Z,61.55
2018-04-16T06:12:43.716Z,60.85
2018-04-16T06:15:13.287Z,68.72
2018-04-16T06:17:42.527Z,63.70
2018-04-16T06:20:11.894Z,58.78
2018-04-16T06:22:41.438Z,59.45
2018-04-16T06:25:11.322Z,61.80
2018-04-16T06:27:40.551Z,57.42
2018-04-16T06:30:09.920Z,59.17
2018-04-16T06:32:39.162Z,59.50
2018-04-16T06:35:09.079Z,59.35
2018-04-16T06:37:38.315Z,54.63
2018-04-16T06:40:07.732Z,56.92
2018-04-16T06:42:37.414Z,61.20
2018-04-16T06:45:06.797Z,50.33
2018-04-16T06:47:36.046Z,52.62
2018-04-16T06:50:05.558Z,52.25
2018-04-16T06:52:36.279Z,58.95
2018-04-16T06:55:06.618Z,65.28
2018-04-16T06:57:36.515Z,79.57
2018-04-16T07:00:06.038Z,61.88
2018-04-16T07:02:35.409Z,61.45
2018-04-16T07:05:04.655Z,64.47
2018-04-16T07:07:34.765Z,60.83
2018-04-16T07:10:04.840Z,66.12
2018-04-16T07:12:34.191Z,50.38
2018-04-16T07:15:04.314Z,56.03
2018-04-16T07:17:33.803Z,52.25
2018-04-16T07:20:03.073Z,54.72
2018-04-16T07:22:33.245Z,54.30
2018-04-16T07:25:04.083Z,50.83
2018-04-16T07:27:33.460Z,51.63
2018-04-16T07:30:02.692Z,53.63
2018-04-16T07:32:32.076Z,62.30
2018-04-16T07:35:02.083Z,47.70
2018-04-16T07:37:31.479Z,53.15
2018-04-16T07:40:00.991Z,46.55
2018-04-16T07:42:30.501Z,43.22
2018-04-16T07:45:00.218Z,48.72
2018-04-16T07:47:30.534Z,52.15
2018-04-16T07:49:59.930Z,50.33
2018-04-16T07:52:29.351Z,50.83
2018-04-16T07:54:59.358Z,49.58
2018-04-16T07:57:28.757Z,46.03
2018-04-16T07:59:57.996Z,57.17
2018-04-16T08:02:27.359Z,54.28
2018-04-16T08:04:56.676Z,61.53
2018-04-16T08:07:27.111Z,59.63
2018-04-16T08:09:56.313Z,56.00
2018-04-16T08:12:26.652Z,51.75
2018-04-16T08:14:55.854Z,65.75
2018-04-16T08:17:25.095Z,53.95
2018-04-16T08:19:54.459Z,67.85
2018-04-16T08:22:23.703Z,52.65
2018-04-16T08:24:53.139Z,77.93
2018-04-16T08:27:23.145Z,54.90
2018-04-16T08:29:52.540Z,74.32
2018-04-16T08:32:21.779Z,71.07
2018-04-16T08:34:51.139Z,78.72
2018-04-16T08:37:21.164Z,57.03
2018-04-16T08:39:50.560Z,64.15
2018-04-16T08:42:19.795Z,61.22
2018-04-16T08:44:49.164Z,59.80
2018-04-16T08:47:18.400Z,58.78
2018-04-16T08:49:47.966Z,53.83
2018-04-16T08:52:17.202Z,63.75
2018-04-16T08:54:46.578Z,61.05
2018-04-16T08:57:15.819Z,63.80
2018-04-16T08:59:45.207Z,54.47
2018-04-16T09:02:14.407Z,50.05
2018-04-16T09:04:44.059Z,55.47
2018-04-16T09:07:13.543Z,55.55
2018-04-16T09:09:43.809Z,48.30
2018-04-16T09:12:13.233Z,52.92
2018-04-16T09:14:42.640Z,53.33
2018-04-16T09:17:12.643Z,48.95
2018-04-16T09:19:42.041Z,51.17
2018-04-16T09:22:11.279Z,46.17
2018-04-16T09:24:40.643Z,46.75
2018-04-16T09:27:10.497Z,51.37
2018-04-16T09:29:39.855Z,55.60
2018-04-16T09:32:09.095Z,52.53
2018-04-16T09:34:38.665Z,48.65
2018-04-16T09:37:08.447Z,52.40
2018-04-16T09:39:37.718Z,57.60
2018-04-16T09:42:08.615Z,49.05
2018-04-16T09:44:37.855Z,46.15
2018-04-16T09:47:08.376Z,46.90
2018-04-16T09:49:38.291Z,45.25
2018-04-16T09:52:08.483Z,44.50
2018-04-16T09:54:38.502Z,53.60
2018-04-16T09:57:07.902Z,47.80
2018-04-16T09:59:38.331Z,54.13
2018-04-16T10:02:26.326Z,44.85
2018-04-16T10:04:56.297Z,55.33
2018-04-16T10:07:26.486Z,48.28
2018-04-16T10:09:55.746Z,50.22
2018-04-16T10:12:25.211Z,46.63
2018-04-16T10:14:54.459Z,47.40
2018-04-16T10:17:23.821Z,43.00
2018-04-16T10:19:54.057Z,50.10
2018-04-16T10:22:23.644Z,44.40
2018-04-16T10:24:53.072Z,43.03
2018-04-16T10:27:22.450Z,50.95
2018-04-16T10:29:52.467Z,50.67
2018-04-16T10:32:21.903Z,48.17
2018-04-16T10:34:51.888Z,47.62
2018-04-16T10:37:21.292Z,51.60
2018-04-16T10:39:51.315Z,43.40
2018-04-16T10:42:20.873Z,48.83
2018-04-16T10:44:50.111Z,48.87
2018-04-16T10:47:20.903Z,49.85
2018-04-16T10:49:50.276Z,45.63
2018-04-16T10:52:19.768Z,46.57
2018-04-16T10:54:50.220Z,50.77
2018-04-16T10:57:20.027Z,46.93
2018-04-16T10:59:49.295Z,45.73
2018-04-16T11:02:19.028Z,43.00
2018-04-16T11:04:48.398Z,44.87
2018-04-16T11:07:17.814Z,43.13
2018-04-16T11:09:47.072Z,42.90
2018-04-16T11:12:16.427Z,37.90
2018-04-16T11:14:46.683Z,37.47
2018-04-16T11:17:16.258Z,48.30
2018-04-16T11:19:46.379Z,32.80
2018-04-16T11:22:15.621Z,30.03
2018-04-16T11:24:45.588Z,28.87
2018-04-16T11:27:15.398Z,28.30
2018-04-16T11:29:45.339Z,29.53
2018-04-16T11:32:15.914Z,26.67
2018-04-16T11:34:45.253Z,27.83
2018-04-16T11:37:15.299Z,34.47
2018-04-16T11:39:44.890Z,26.87
2018-04-16T11:42:14.910Z,29.00
2018-04-16T11:44:45.350Z,27.20
2018-04-16T11:47:14.599Z,20.80
2018-04-16T11:49:43.952Z,33.03
2018-04-16T11:52:14.136Z,32.53
2018-04-16T11:54:44.577Z,32.77
2018-04-16T11:57:14.163Z,28.20
2018-04-16T11:59:43.583Z,27.67
2018-04-16T12:02:13.443Z,32.90
2018-04-16T12:04:43.623Z,36.57
2018-04-16T12:07:12.874Z,25.20
2018-04-16T12:09:42.228Z,25.27
2018-04-16T12:12:12.254Z,28.17
2018-04-16T12:14:42.325Z,26.43
2018-04-16T12:17:12.507Z,27.90
2018-04-16T12:19:42.597Z,24.57
2018-04-16T12:22:11.830Z,29.47
2018-04-16T12:24:41.788Z,24.33
2018-04-16T12:27:11.042Z,27.40
2018-04-16T12:29:41.652Z,32.43
2018-04-16T12:32:11.974Z,30.97
2018-04-16T12:34:41.516Z,26.57
2018-04-16T12:37:11.503Z,22.70
2018-04-16T12:39:40.749Z,24.80
2018-04-16T12:42:10.167Z,26.23
2018-04-16T12:44:39.415Z,25.87
2018-04-16T12:47:08.804Z,31.23
2018-04-16T12:49:38.812Z,32.97
2018-04-16T12:52:09.065Z,28.33
2018-04-16T12:54:38.278Z,25.50
2018-04-16T12:57:07.848Z,27.33
2018-04-16T12:59:37.215Z,27.00
2018-04-16T13:02:06.659Z,25.93
2018-04-16T13:04:36.672Z,27.00
2018-04-16T13:07:06.890Z,27.03
2018-04-16T13:09:36.148Z,29.90
2018-04-16T13:12:05.505Z,25.17
2018-04-16T13:14:34.828Z,27.77
2018-04-16T13:17:04.205Z,26.20
2018-04-16T13:19:33.447Z,24.70
2018-04-16T13:22:03.731Z,26.57
2018-04-16T13:24:33.738Z,20.90
2018-04-16T13:27:03.972Z,25.30
2018-04-16T13:29:33.349Z,23.33
2018-04-16T13:32:02.780Z,27.77
2018-04-16T13:34:34.115Z,25.97
2018-04-16T13:37:03.632Z,26.13
2018-04-16T13:39:33.643Z,23.13
2018-04-16T13:42:04.082Z,20.50
2018-04-16T13:44:34.101Z,21.10
2018-04-16T13:47:03.496Z,19.85
2018-04-16T13:49:33.515Z,22.10
2018-04-16T13:52:03.329Z,23.33
2018-04-16T13:54:33.658Z,22.08
2018-04-16T13:57:03.670Z,22.87
2018-04-16T13:59:33.285Z,22.20
2018-04-16T14:02:02.693Z,17.15
2018-04-16T14:04:32.086Z,20.15
2018-04-16T14:07:02.103Z,19.98
2018-04-16T14:09:31.503Z,18.42
2018-04-16T14:12:01.220Z,17.40
2018-04-16T14:14:30.730Z,23.83
2018-04-16T14:17:00.101Z,18.30
2018-04-16T14:19:29.546Z,24.63
2018-04-16T14:21:59.888Z,21.12
2018-04-16T14:24:29.355Z,14.87
2018-04-16T14:26:59.325Z,14.30
2018-04-16T14:29:28.813Z,14.40
2018-04-16T14:31:59.463Z,13.65
2018-04-16T14:34:29.018Z,15.07
2018-04-16T14:36:58.263Z,17.90
2018-04-16T14:39:27.854Z,28.95
2018-04-16T14:41:57.108Z,23.58
2018-04-16T14:44:26.482Z,31.67
2018-04-16T14:46:56.576Z,38.40
2018-04-16T14:49:27.287Z,27.35
2018-04-16T14:51:57.930Z,24.40
2018-04-16T14:54:29.427Z,33.00
2018-04-16T14:56:59.075Z,29.45
2018-04-16T14:59:28.501Z,28.95
2018-04-16T15:01:57.885Z,40.67
2018-04-16T15:04:27.519Z,30.08
2018-04-16T15:06:57.530Z,38.92
2018-04-16T15:09:27.522Z,42.30
2018-04-16T15:11:56.933Z,37.25
2018-04-16T15:14:26.436Z,44.00
2018-04-16T15:16:55.899Z,41.40
2018-04-16T15:19:25.150Z,47.10
2018-04-16T15:21:54.562Z,48.35
2018-04-16T15:24:25.302Z,49.50
2018-04-16T15:26:54.779Z,50.92
2018-04-16T15:29:24.747Z,54.58
2018-04-16T15:31:54.208Z,48.90
2018-04-16T15:34:23.847Z,46.65
2018-04-16T15:36:53.510Z,52.33
2018-04-16T15:39:23.738Z,51.35
2018-04-16T15:41:53.210Z,52.38
2018-04-16T15:44:22.466Z,47.55
2018-04-16T15:46:51.860Z,56.88
2018-04-16T15:49:21.239Z,55.42
2018-04-16T15:51:50.585Z,48.80
2018-04-16T15:54:20.882Z,56.50
2018-04-16T15:56:51.491Z,53.33
2018-04-16T15:59:20.914Z,47.62
2018-04-16T16:01:50.171Z,53.10
2018-04-16T16:04:19.609Z,49.25
2018-04-16T16:06:48.809Z,47.28
2018-04-16T16:09:18.326Z,46.22
2018-04-16T16:11:47.612Z,50.03
2018-04-16T16:14:17.344Z,50.20
2018-04-16T16:16:47.404Z,49.55
2018-04-16T16:19:16.742Z,48.87
2018-04-16T16:21:46.437Z,49.95
2018-04-16T16:24:15.772Z,50.85
2018-04-16T16:26:45.023Z,51.42
2018-04-16T16:29:14.596Z,45.63
2018-04-16T16:31:44.226Z,51.25
2018-04-16T16:34:13.591Z,48.70
2018-04-16T16:36:42.913Z,48.10
2018-04-16T16:39:12.827Z,47.90
2018-04-16T16:41:42.812Z,51.50
2018-04-16T16:44:12.634Z,55.05
2018-04-16T16:46:41.879Z,47.85
2018-04-16T16:49:11.543Z,44.92
2018-04-16T16:51:40.971Z,40.72
2018-04-16T16:54:11.922Z,44.35
2018-04-16T16:56:41.292Z,41.55
2018-04-16T16:59:11.248Z,43.90
2018-04-16T17:01:40.623Z,37.75
2018-04-16T17:04:10.632Z,43.78
2018-04-16T17:06:40.747Z,41.67
2018-04-16T17:09:10.354Z,44.75
2018-04-16T17:11:39.757Z,38.20
2018-04-16T17:14:09.003Z,38.75
2018-04-16T17:16:38.359Z,39.28
2018-04-16T17:19:07.611Z,35.30
2018-04-16T17:21:36.967Z,34.22
2018-04-16T17:24:06.980Z,34.90
2018-04-16T17:26:36.384Z,135.07
2018-04-16T17:29:05.632Z,341.55
2018-04-16T17:31:34.983Z,40.72
2018-04-16T17:34:04.233Z,34.42
2018-04-16T17:36:34.202Z,35.63
2018-04-16T17:39:03.527Z,38.10
2018-04-16T17:41:33.015Z,35.47
2018-04-16T17:44:02.362Z,37.45
2018-04-16T17:46:32.650Z,35.30
2018-04-16T17:49:01.905Z,37.72
2018-04-16T17:51:31.426Z,38.80
2018-04-16T17:54:01.564Z,37.20
2018-04-16T17:56:31.439Z,32.65
2018-04-16T17:59:00.991Z,30.60
2018-04-16T18:01:31.011Z,29.05
2018-04-16T18:04:00.402Z,30.70
2018-04-16T18:06:29.699Z,23.12
2018-04-16T18:08:59.239Z,19.37
2018-04-16T18:11:29.274Z,17.83
2018-04-16T18:13:58.639Z,18.62
2018-04-16T18:16:28.684Z,14.10
2018-04-16T18:18:58.057Z,16.80
2018-04-16T18:21:27.344Z,13.73
2018-04-16T18:23:56.959Z,13.15
2018-04-16T18:26:26.191Z,10.55
2018-04-16T18:28:55.670Z,13.50
2018-04-16T18:31:25.407Z,15.70
2018-04-16T18:33:55.504Z,23.33
2018-04-16T18:36:24.735Z,12.57
2018-04-16T18:38:54.710Z,19.25
2018-04-16T18:41:23.947Z,19.55
2018-04-16T18:43:53.927Z,14.23
2018-04-16T18:46:23.184Z,16.85
2018-04-16T18:48:52.530Z,13.77
2018-04-16T18:51:22.347Z,21.02
2018-04-16T18:53:51.757Z,21.95
2018-04-16T18:56:21.318Z,13.93
2018-04-16T18:58:50.968Z,19.50
2018-04-16T19:01:20.380Z,25.12
2018-04-16T19:03:49.579Z,18.55
2018-04-16T19:06:19.952Z,22.67
2018-04-16T19:08:50.735Z,14.93
2018-04-16T19:11:21.158Z,23.10
2018-04-16T19:13:50.391Z,17.65
2018-04-16T19:16:19.767Z,22.42
2018-04-16T19:18:49.298Z,18.90
2018-04-16T19:21:24.103Z,25.58
2018-04-16T19:23:53.464Z,18.27
2018-04-16T19:26:23.725Z,18.23
2018-04-16T19:28:53.842Z,22.05
2018-04-16T19:31:23.177Z,14.55
2018-04-16T19:33:58.343Z,17.65
2018-04-16T19:36:27.783Z,15.63
2018-04-16T19:38:57.111Z,15.68
2018-04-16T19:41:27.307Z,27.90
2018-04-16T19:43:57.244Z,22.70
2018-04-16T19:46:26.627Z,19.45
2018-04-16T19:49:01.437Z,14.13
2018-04-16T19:51:30.984Z,14.18
2018-04-16T19:54:00.227Z,12.73
2018-04-16T19:56:35.402Z,16.77
2018-04-16T19:59:04.647Z,17.35
2018-04-16T20:01:34.026Z,17.00
2018-04-16T20:04:03.310Z,16.92
2018-04-16T20:06:33.860Z,22.95
2018-04-16T20:09:03.058Z,14.00
2018-04-16T20:11:33.360Z,16.80
2018-04-16T20:14:02.596Z,13.62
2018-04-16T20:16:31.958Z,13.18
2018-04-16T20:19:01.567Z,17.15
2018-04-16T20:21:30.955Z,11.98
2018-04-16T20:24:00.791Z,20.75
2018-04-16T20:26:30.603Z,18.75
2018-04-16T20:29:00.538Z,17.12
2018-04-16T20:31:30.843Z,18.20
2018-04-16T20:34:00.966Z,19.65
2018-04-16T20:36:30.467Z,9.98
2018-04-16T20:39:00.534Z,32.63
2018-04-16T20:41:29.770Z,21.40
2018-04-16T20:44:00.027Z,19.67
2018-04-16T20:46:30.031Z,17.90
2018-04-16T20:48:59.539Z,21.73
2018-04-16T20:51:29.215Z,12.25
2018-04-16T20:53:58.567Z,28.77
2018-04-16T20:56:27.814Z,10.60
2018-04-16T20:58:57.447Z,20.45
2018-04-16T21:01:26.691Z,19.48
2018-04-16T21:03:56.257Z,18.77
2018-04-16T21:06:25.487Z,20.92
2018-04-16T21:08:54.855Z,21.75
2018-04-16T21:11:24.096Z,17.40
2018-04-16T21:13:54.080Z,17.73
2018-04-16T21:16:24.528Z,14.90
2018-04-16T21:18:53.907Z,20.42
2018-04-16T21:21:23.147Z,19.10
2018-04-16T21:23:52.502Z,17.95
2018-04-16T21:26:21.922Z,16.62
2018-04-16T21:28:51.320Z,17.65
2018-04-16T21:31:21.063Z,23.58
2018-04-16T21:33:50.527Z,17.00
2018-04-16T21:36:19.970Z,12.77
2018-04-16T21:38:50.155Z,18.15
2018-04-16T21:41:19.658Z,19.00
2018-04-16T21:43:48.891Z,23.77
2018-04-16T21:46:18.259Z,18.30
2018-04-16T21:48:47.495Z,27.33
2018-04-16T21:51:16.855Z,18.55
2018-04-16T21:53:46.084Z,24.67
2018-04-16T21:56:15.463Z,20.02
2018-04-16T21:58:44.692Z,22.15
2018-04-16T22:01:14.091Z,20.70
2018-04-16T22:03:44.107Z,19.08
2018-04-16T22:06:13.487Z,14.77
2018-04-16T22:08:43.947Z,17.08
2018-04-16T22:11:13.318Z,25.65
2018-04-16T22:13:43.590Z,16.35
2018-04-16T22:16:13.069Z,24.02
2018-04-16T22:18:42.556Z,29.20
2018-04-16T22:21:12.404Z,18.70
2018-04-16T22:23:41.586Z,25.27
2018-04-16T22:26:11.379Z,19.42
2018-04-16T22:28:40.608Z,24.37
2018-04-16T22:31:09.986Z,25.08
2018-04-16T22:33:40.031Z,22.23
2018-04-16T22:36:09.763Z,23.45
2018-04-16T22:38:40.134Z,25.42
2018-04-16T22:41:09.368Z,22.05
2018-04-16T22:43:38.754Z,25.30
2018-04-16T22:46:08.763Z,32.58
2018-04-16T22:48:39.795Z,29.40
2018-04-16T22:51:09.186Z,23.23
2018-04-16T22:53:39.062Z,33.28
2018-04-16T22:56:08.419Z,25.90
2018-04-16T22:58:39.367Z,20.10
2018-04-16T23:01:09.198Z,28.38
2018-04-16T23:03:39.299Z,24.92
2018-04-16T23:06:08.615Z,37.90
2018-04-16T23:08:38.104Z,29.30
2018-04-16T23:11:07.647Z,27.70
2018-04-16T23:13:37.672Z,33.33
2018-04-16T23:16:07.815Z,29.50
2018-04-16T23:18:37.357Z,36.13
2018-04-16T23:21:06.587Z,25.95
2018-04-16T23:23:35.960Z,28.08
2018-04-16T23:26:05.182Z,45.97
2018-04-16T23:28:34.557Z,30.70
2018-04-16T23:31:03.796Z,40.83
2018-04-16T23:33:33.062Z,29.77
2018-04-16T23:36:03.079Z,23.52
2018-04-16T23:38:32.379Z,35.28
2018-04-16T23:41:01.714Z,33.20
2018-04-16T23:43:30.943Z,32.38
2018-04-16T23:46:00.475Z,27.40
2018-04-16T23:48:29.710Z,30.77
2018-04-16T23:50:59.046Z,21.90
2018-04-16T23:53:28.309Z,37.10
2018-04-16T23:55:58.717Z,36.08
2018-04-16T23:58:27.943Z,34.10
